Terminal Aerodrome Forecast
Issued by NWS

Home | Current Version | Previous Version | Text Only | Print | Product List | Glossary On
Versions: 1 2 3 4 5 6 7 8 9 10 11 12 13 14 15 16 17 18 19 20
000
FTUS42 KGSP 251723
TAFGMU
TAF
KGMU 251723Z 2518/2618 24006KT P6SM OVC004
     FM252100 21008KT P6SM SCT010 OVC020
     FM260000 22010KT P6SM BKN035 WS020/24030KT PROB30 2603/2607 4SM
      TSRA BKN025CB
     FM260700 24011KT P6SM BKN019
     FM261400 27010KT P6SM SCT020=

USA.gov is the U.S. government's official web portal to all federal, state and local government web resources and services.